createdAt,value
2018-10-11T00:00:21.474Z,4.00
2018-10-11T00:01:21.493Z,4.00
2018-10-11T00:02:21.513Z,4.00
2018-10-11T00:03:21.534Z,4.00
2018-10-11T00:04:21.554Z,4.00
2018-10-11T00:05:21.574Z,4.00
2018-10-11T00:06:21.594Z,4.00
2018-10-11T00:07:21.615Z,4.00
2018-10-11T00:08:21.636Z,4.00
2018-10-11T00:09:21.658Z,4.00
2018-10-11T00:10:21.675Z,4.00
2018-10-11T00:11:21.696Z,4.00
2018-10-11T00:12:21.717Z,4.00
2018-10-11T00:13:21.736Z,4.00
2018-10-11T00:14:21.756Z,4.00
2018-10-11T00:15:21.777Z,4.00
2018-10-11T00:16:21.798Z,4.00
2018-10-11T00:17:21.818Z,4.00
2018-10-11T00:18:21.838Z,4.00
2018-10-11T00:19:21.858Z,4.00
2018-10-11T00:20:21.879Z,4.00
2018-10-11T00:21:21.898Z,4.00
2018-10-11T00:22:21.919Z,4.00
2018-10-11T00:23:21.940Z,4.00
2018-10-11T00:24:21.959Z,4.00
2018-10-11T00:25:21.980Z,4.00
2018-10-11T00:26:22.000Z,4.00
2018-10-11T00:27:22.020Z,4.00
2018-10-11T00:28:22.041Z,4.00
2018-10-11T00:29:22.061Z,4.00
2018-10-11T00:30:22.080Z,4.00
2018-10-11T00:31:22.100Z,4.00
2018-10-11T00:32:22.121Z,4.00
2018-10-11T00:33:22.140Z,4.00
2018-10-11T00:34:22.161Z,4.00
2018-10-11T00:35:22.181Z,4.00
2018-10-11T00:36:22.205Z,4.00
2018-10-11T00:37:22.220Z,4.00
2018-10-11T00:38:22.256Z,4.00
2018-10-11T00:39:22.262Z,4.00
2018-10-11T00:40:22.282Z,4.00
2018-10-11T00:41:22.302Z,4.00
2018-10-11T00:42:22.321Z,4.00
2018-10-11T00:43:22.342Z,4.00
2018-10-11T00:44:22.363Z,4.00
2018-10-11T00:45:22.387Z,4.00
2018-10-11T00:46:22.402Z,4.00
2018-10-11T00:47:22.423Z,4.00
2018-10-11T00:48:22.443Z,4.00
2018-10-11T00:49:22.505Z,4.00
2018-10-11T00:50:22.484Z,4.00
2018-10-11T00:51:22.502Z,4.00
2018-10-11T00:52:22.523Z,4.00
2018-10-11T00:53:22.542Z,4.00
2018-10-11T00:54:22.562Z,4.00
2018-10-11T00:55:22.583Z,4.00
2018-10-11T00:56:22.603Z,4.00
2018-10-11T00:57:22.622Z,4.00
2018-10-11T00:58:22.642Z,4.00
2018-10-11T00:59:22.663Z,4.00
2018-10-11T01:00:22.683Z,4.00
2018-10-11T01:01:22.702Z,4.00
2018-10-11T01:02:22.728Z,4.00
2018-10-11T01:03:22.743Z,4.00
2018-10-11T01:04:22.763Z,4.00
2018-10-11T01:05:22.785Z,4.00
2018-10-11T01:06:22.802Z,4.00
2018-10-11T01:07:22.822Z,4.00
2018-10-11T01:08:22.843Z,4.00
2018-10-11T01:09:23.075Z,4.00
2018-10-11T01:10:22.922Z,4.00
2018-10-11T01:11:22.904Z,4.00
2018-10-11T01:12:22.923Z,4.00
2018-10-11T01:13:22.943Z,4.00
2018-10-11T01:14:22.962Z,4.00
2018-10-11T01:15:22.983Z,4.00
2018-10-11T01:16:23.006Z,4.00
2018-10-11T01:17:23.023Z,4.00
2018-10-11T01:18:23.042Z,4.00
2018-10-11T01:19:23.062Z,4.00
2018-10-11T01:20:23.082Z,4.00
2018-10-11T01:21:23.101Z,4.00
2018-10-11T01:22:23.122Z,4.00
2018-10-11T01:23:23.142Z,4.00
2018-10-11T01:24:23.163Z,4.00
2018-10-11T01:25:23.182Z,4.00
2018-10-11T01:26:23.202Z,4.00
2018-10-11T01:27:23.274Z,4.00
2018-10-11T01:28:23.243Z,4.00
2018-10-11T01:29:23.261Z,4.00
2018-10-11T01:30:23.282Z,4.00
2018-10-11T01:31:23.303Z,4.00
2018-10-11T01:32:23.322Z,4.00
2018-10-11T01:33:23.341Z,4.00
2018-10-11T01:34:23.361Z,4.00
2018-10-11T01:35:23.381Z,4.00
2018-10-11T01:36:23.404Z,4.00
2018-10-11T01:37:23.421Z,4.00
2018-10-11T01:38:23.493Z,4.00
2018-10-11T01:39:23.461Z,4.00
2018-10-11T01:40:23.483Z,4.00
2018-10-11T01:41:23.501Z,4.00
2018-10-11T01:42:23.520Z,4.00
2018-10-11T01:43:23.540Z,4.00
2018-10-11T01:44:23.561Z,4.00
2018-10-11T01:45:23.583Z,4.00
2018-10-11T01:46:23.601Z,4.00
2018-10-11T01:47:23.620Z,4.00
2018-10-11T01:48:23.640Z,4.00
2018-10-11T01:49:23.660Z,4.00
2018-10-11T01:50:23.680Z,4.00
2018-10-11T01:51:23.700Z,4.00
2018-10-11T01:52:23.720Z,4.00
2018-10-11T01:53:23.739Z,4.00
2018-10-11T01:54:23.759Z,4.00
2018-10-11T01:55:23.779Z,4.00
2018-10-11T01:56:23.799Z,4.00
2018-10-11T01:57:23.819Z,4.00
2018-10-11T01:58:23.837Z,4.00
2018-10-11T01:59:23.858Z,4.00
2018-10-11T02:00:23.877Z,4.00
2018-10-11T02:01:23.910Z,4.00
2018-10-11T02:02:23.917Z,4.00
2018-10-11T02:03:23.936Z,4.00
2018-10-11T02:04:23.956Z,4.00
2018-10-11T02:05:23.975Z,4.00
2018-10-11T02:06:23.995Z,4.00
2018-10-11T02:07:24.015Z,4.00
2018-10-11T02:08:24.035Z,4.00
2018-10-11T02:09:24.058Z,4.00
2018-10-11T02:10:24.074Z,4.00
2018-10-11T02:11:24.092Z,4.00
2018-10-11T02:12:24.164Z,4.00
2018-10-11T02:13:24.132Z,4.00
2018-10-11T02:14:24.153Z,4.00
2018-10-11T02:15:24.173Z,4.00
2018-10-11T02:16:24.193Z,4.00
2018-10-11T02:17:24.212Z,4.00
2018-10-11T02:18:24.232Z,4.00
2018-10-11T02:19:24.252Z,4.00
2018-10-11T02:20:24.272Z,4.00
2018-10-11T02:21:24.290Z,4.00
2018-10-11T02:22:24.364Z,4.00
2018-10-11T02:23:24.330Z,4.00
2018-10-11T02:24:24.350Z,4.00
2018-10-11T02:25:24.373Z,4.00
2018-10-11T02:26:24.389Z,4.00
2018-10-11T02:27:24.409Z,4.00
2018-10-11T02:28:24.429Z,4.00
2018-10-11T02:29:24.453Z,4.00
2018-10-11T02:30:24.474Z,4.00
2018-10-11T02:31:24.488Z,4.00
2018-10-11T02:32:24.508Z,4.00
2018-10-11T02:33:24.527Z,4.00
2018-10-11T02:34:24.547Z,4.00
2018-10-11T02:35:24.566Z,4.00
2018-10-11T02:36:24.588Z,4.00
2018-10-11T02:37:24.605Z,4.00
2018-10-11T02:38:24.626Z,4.00
2018-10-11T02:39:24.645Z,4.00
2018-10-11T02:40:24.665Z,4.00
2018-10-11T02:41:24.684Z,4.00
2018-10-11T02:42:24.704Z,4.00
2018-10-11T02:43:24.774Z,4.00
2018-10-11T02:44:24.744Z,4.00
2018-10-11T02:45:24.763Z,4.00
2018-10-11T02:46:24.786Z,4.00
2018-10-11T02:47:24.802Z,4.00
2018-10-11T02:48:24.825Z,4.00
2018-10-11T02:49:24.842Z,4.00
2018-10-11T02:50:24.863Z,4.00
2018-10-11T02:51:24.881Z,4.00
2018-10-11T02:52:24.900Z,4.00
2018-10-11T02:53:24.921Z,4.00
2018-10-11T02:54:24.944Z,4.00
2018-10-11T02:55:24.960Z,4.00
2018-10-11T02:56:24.979Z,4.00
2018-10-11T02:57:24.998Z,4.00
2018-10-11T02:58:25.019Z,4.00
2018-10-11T02:59:25.039Z,4.00
2018-10-11T03:00:25.058Z,4.00
2018-10-11T03:01:25.077Z,4.00
2018-10-11T03:02:25.098Z,4.00
2018-10-11T03:03:25.119Z,4.00
2018-10-11T03:04:25.186Z,4.00
2018-10-11T03:05:25.155Z,4.00
2018-10-11T03:06:25.174Z,4.00
2018-10-11T03:07:25.194Z,4.00
2018-10-11T03:08:25.214Z,4.00
2018-10-11T03:09:25.245Z,4.00
2018-10-11T03:10:25.254Z,4.00
2018-10-11T03:11:25.272Z,4.00
2018-10-11T03:12:25.293Z,4.00
2018-10-11T03:13:25.314Z,4.00
2018-10-11T03:14:25.331Z,4.00
2018-10-11T03:15:25.351Z,4.00
2018-10-11T03:16:25.371Z,4.00
2018-10-11T03:17:25.390Z,4.00
2018-10-11T03:18:25.409Z,4.00
2018-10-11T03:19:25.429Z,4.00
2018-10-11T03:20:25.452Z,4.00
2018-10-11T03:21:25.468Z,4.00
2018-10-11T03:22:25.487Z,4.00
2018-10-11T03:23:25.507Z,4.00
2018-10-11T03:24:25.528Z,4.00
2018-10-11T03:25:25.545Z,4.00
2018-10-11T03:26:25.567Z,4.00
2018-10-11T03:27:25.583Z,4.00
2018-10-11T03:28:25.604Z,4.00
2018-10-11T03:29:25.623Z,4.00
2018-10-11T03:30:25.705Z,4.00
2018-10-11T03:31:25.663Z,4.00
2018-10-11T03:32:25.683Z,4.00
2018-10-11T03:33:25.751Z,4.00
2018-10-11T03:34:25.721Z,4.00
2018-10-11T03:35:25.741Z,4.00
2018-10-11T03:36:25.760Z,4.00
2018-10-11T03:37:25.778Z,4.00
2018-10-11T03:38:25.798Z,4.00
2018-10-11T03:39:25.818Z,4.00
2018-10-11T03:40:25.838Z,4.00
2018-10-11T03:41:25.857Z,4.00
2018-10-11T03:42:25.877Z,4.00
2018-10-11T03:43:25.948Z,4.00
2018-10-11T03:44:25.916Z,4.00
2018-10-11T03:45:25.934Z,4.00
2018-10-11T03:46:25.983Z,4.00
2018-10-11T03:47:25.974Z,4.00
2018-10-11T03:48:25.993Z,4.00
2018-10-11T03:49:26.011Z,4.00
2018-10-11T03:50:26.032Z,4.00
2018-10-11T03:51:26.052Z,4.00
2018-10-11T03:52:26.071Z,4.00
2018-10-11T03:53:26.089Z,4.00
2018-10-11T03:54:26.108Z,4.00
2018-10-11T03:55:26.130Z,4.00
2018-10-11T03:56:26.148Z,4.00
2018-10-11T03:57:26.219Z,4.00
2018-10-11T03:58:26.187Z,4.00
2018-10-11T03:59:26.207Z,4.00
2018-10-11T04:00:26.229Z,4.00
2018-10-11T04:01:26.245Z,4.00
2018-10-11T04:02:26.264Z,4.00
2018-10-11T04:03:26.286Z,4.00
2018-10-11T04:04:26.304Z,4.00
2018-10-11T04:05:26.322Z,4.00
2018-10-11T04:06:26.341Z,4.00
2018-10-11T04:07:26.387Z,4.00
2018-10-11T04:08:26.381Z,4.00
2018-10-11T04:09:26.400Z,4.00
2018-10-11T04:10:26.419Z,4.00
2018-10-11T04:11:26.437Z,4.00
2018-10-11T04:12:26.458Z,4.00
2018-10-11T04:13:26.477Z,4.00
2018-10-11T04:14:26.496Z,4.00
2018-10-11T04:15:26.552Z,4.00
2018-10-11T04:16:26.535Z,4.00
2018-10-11T04:17:26.554Z,4.00
2018-10-11T04:18:26.574Z,4.00
2018-10-11T04:19:26.593Z,4.00
2018-10-11T04:20:26.615Z,4.00
2018-10-11T04:21:26.631Z,4.00
2018-10-11T04:22:26.652Z,4.00
2018-10-11T04:23:26.671Z,4.00
2018-10-11T04:24:26.690Z,4.00
2018-10-11T04:25:26.708Z,4.00
2018-10-11T04:26:26.728Z,4.00
2018-10-11T04:27:26.748Z,4.00
2018-10-11T04:28:26.772Z,4.00
2018-10-11T04:29:26.785Z,4.00
2018-10-11T04:30:26.805Z,4.00
2018-10-11T04:31:26.824Z,4.00
2018-10-11T04:32:26.844Z,4.00
2018-10-11T04:33:26.865Z,4.00
2018-10-11T04:34:26.882Z,4.00
2018-10-11T04:35:26.902Z,4.00
2018-10-11T04:36:26.922Z,4.00
2018-10-11T04:37:26.990Z,4.00
2018-10-11T04:38:26.959Z,4.00
2018-10-11T04:39:26.979Z,4.00
2018-10-11T04:40:26.999Z,4.00
2018-10-11T04:41:27.017Z,4.00
2018-10-11T04:42:27.038Z,8.00
2018-10-11T04:43:27.056Z,4.00
2018-10-11T04:44:27.126Z,4.00
2018-10-11T04:45:27.094Z,4.00
2018-10-11T04:46:27.113Z,4.00
2018-10-11T04:47:27.140Z,4.00
2018-10-11T04:48:27.152Z,8.00
2018-10-11T04:49:27.174Z,4.00
2018-10-11T04:50:27.192Z,4.00
2018-10-11T04:51:27.209Z,4.00
2018-10-11T04:52:27.229Z,4.00
2018-10-11T04:53:27.265Z,8.00
2018-10-11T04:54:27.268Z,4.00
2018-10-11T04:55:27.287Z,4.00
2018-10-11T04:56:27.307Z,4.00
2018-10-11T04:57:27.326Z,8.00
2018-10-11T04:58:27.345Z,4.00
2018-10-11T04:59:27.364Z,4.00
2018-10-11T05:00:27.388Z,4.00
2018-10-11T05:01:27.405Z,4.00
2018-10-11T05:02:27.422Z,4.00
2018-10-11T05:03:27.441Z,4.00
2018-10-11T05:04:27.460Z,4.00
2018-10-11T05:05:27.534Z,4.00
2018-10-11T05:06:27.500Z,4.00
2018-10-11T05:07:27.521Z,4.00
2018-10-11T05:08:27.537Z,8.00
2018-10-11T05:09:27.556Z,4.00
2018-10-11T05:10:27.576Z,4.00
2018-10-11T05:11:27.595Z,4.00
2018-10-11T05:12:27.615Z,8.00
2018-10-11T05:13:27.633Z,8.00
2018-10-11T05:14:27.655Z,8.00
2018-10-11T05:15:27.672Z,8.00
2018-10-11T05:16:27.692Z,4.00
2018-10-11T05:17:27.761Z,4.00
2018-10-11T05:18:27.729Z,8.00
2018-10-11T05:19:27.749Z,8.00
2018-10-11T05:20:27.768Z,8.00
2018-10-11T05:21:27.804Z,8.00
2018-10-11T05:22:27.807Z,8.00
2018-10-11T05:23:27.837Z,8.00
2018-10-11T05:24:27.845Z,8.00
2018-10-11T05:25:27.866Z,12.00
2018-10-11T05:26:27.888Z,12.00
2018-10-11T05:27:27.903Z,12.00
2018-10-11T05:28:27.922Z,12.00
2018-10-11T05:29:27.952Z,16.00
2018-10-11T05:30:27.960Z,16.00
2018-10-11T05:31:27.980Z,16.00
2018-10-11T05:32:28.002Z,20.00
2018-10-11T05:33:28.017Z,24.00
2018-10-11T05:34:28.037Z,28.00
2018-10-11T05:35:28.056Z,32.00
2018-10-11T05:36:28.077Z,36.00
2018-10-11T05:37:28.099Z,44.00
2018-10-11T05:38:28.114Z,52.00
2018-10-11T05:39:28.184Z,56.00
2018-10-11T05:40:28.153Z,64.00
2018-10-11T05:41:28.172Z,72.00
2018-10-11T05:42:28.191Z,84.00
2018-10-11T05:43:28.211Z,92.00
2018-10-11T05:44:28.315Z,100.00
2018-10-11T05:45:28.248Z,108.00
2018-10-11T05:46:28.267Z,120.00
2018-10-11T05:47:28.287Z,132.00
2018-10-11T05:48:28.306Z,144.00
2018-10-11T05:49:28.325Z,156.00
2018-10-11T05:50:28.345Z,168.00
2018-10-11T05:51:28.364Z,184.00
2018-10-11T05:52:28.384Z,200.00
2018-10-11T05:53:28.401Z,216.00
2018-10-11T05:54:28.421Z,228.00
2018-10-11T05:55:28.441Z,244.00
2018-10-11T05:56:28.466Z,260.00
2018-10-11T05:57:28.481Z,276.00
2018-10-11T05:58:28.498Z,292.00
2018-10-11T05:59:28.517Z,312.00
2018-10-11T06:00:28.537Z,328.00
2018-10-11T06:01:28.555Z,344.00
2018-10-11T06:02:28.575Z,364.00
2018-10-11T06:03:28.597Z,380.00
2018-10-11T06:04:28.666Z,400.00
2018-10-11T06:05:28.634Z,416.00
2018-10-11T06:06:28.652Z,432.00
2018-10-11T06:07:28.672Z,452.00
2018-10-11T06:08:28.691Z,464.00
2018-10-11T06:09:28.710Z,488.00
2018-10-11T06:10:28.732Z,508.00
2018-10-11T06:11:28.749Z,528.00
2018-10-11T06:12:28.769Z,544.00
2018-10-11T06:13:28.787Z,564.00
2018-10-11T06:14:28.806Z,580.00
2018-10-11T06:15:28.827Z,608.00
2018-10-11T06:16:28.845Z,628.00
2018-10-11T06:17:28.864Z,636.00
2018-10-11T06:18:28.883Z,652.00
2018-10-11T06:19:28.903Z,672.00
2018-10-11T06:20:28.923Z,688.00
2018-10-11T06:21:28.944Z,708.00
2018-10-11T06:22:28.960Z,724.00
2018-10-11T06:23:28.979Z,744.00
2018-10-11T06:24:29.001Z,760.00
2018-10-11T06:25:29.018Z,776.00
2018-10-11T06:26:29.037Z,792.00
2018-10-11T06:27:29.057Z,812.00
2018-10-11T06:28:29.076Z,832.00
2018-10-11T06:29:29.095Z,848.00
2018-10-11T06:30:29.115Z,872.00
2018-10-11T06:31:29.137Z,892.00
2018-10-11T06:32:29.155Z,908.00
2018-10-11T06:33:29.174Z,924.00
2018-10-11T06:34:29.195Z,936.00
2018-10-11T06:35:29.212Z,944.00
2018-10-11T06:36:29.370Z,968.00
2018-10-11T06:37:29.299Z,1000.00
2018-10-11T06:38:29.269Z,1016.00
2018-10-11T06:39:29.289Z,1036.00
2018-10-11T06:40:29.309Z,1052.00
2018-10-11T06:41:29.327Z,1072.00
2018-10-11T06:42:29.514Z,1092.00
2018-10-11T06:43:29.367Z,1108.00
2018-10-11T06:44:29.436Z,1124.00
2018-10-11T06:45:29.405Z,1140.00
2018-10-11T06:46:29.425Z,1156.00
2018-10-11T06:47:29.445Z,1176.00
2018-10-11T06:48:29.464Z,1204.00
2018-10-11T06:49:29.482Z,1220.00
2018-10-11T06:50:29.601Z,1240.00
2018-10-11T06:51:29.525Z,1252.00
2018-10-11T06:52:29.592Z,1264.00
2018-10-11T06:53:29.560Z,1284.00
2018-10-11T06:54:29.580Z,1304.00
2018-10-11T06:55:29.599Z,1488.00
2018-10-11T06:56:29.619Z,1600.00
2018-10-11T06:57:29.687Z,1464.00
2018-10-11T06:58:29.657Z,1396.00
2018-10-11T06:59:29.677Z,1380.00
2018-10-11T07:00:29.699Z,1404.00
2018-10-11T07:01:29.716Z,1436.00
2018-10-11T07:02:29.736Z,1468.00
2018-10-11T07:03:29.755Z,1504.00
2018-10-11T07:04:29.775Z,1536.00
2018-10-11T07:05:29.794Z,1540.00
2018-10-11T07:06:29.813Z,1544.00
2018-10-11T07:07:29.838Z,1552.00
2018-10-11T07:08:29.854Z,1580.00
2018-10-11T07:09:29.872Z,1604.00
2018-10-11T07:10:29.941Z,1624.00
2018-10-11T07:11:29.912Z,1640.00
2018-10-11T07:12:29.937Z,1664.00
2018-10-11T07:13:29.956Z,1676.00
2018-10-11T07:14:30.005Z,1700.00
2018-10-11T07:15:29.990Z,1724.00
2018-10-11T07:16:30.011Z,1740.00
2018-10-11T07:17:30.029Z,1760.00
2018-10-11T07:18:30.098Z,1780.00
2018-10-11T07:19:30.152Z,1796.00
2018-10-11T07:20:30.093Z,1820.00
2018-10-11T07:21:30.110Z,1840.00
2018-10-11T07:22:30.129Z,2036.00
2018-10-11T07:23:30.151Z,2820.00
2018-10-11T07:24:30.167Z,3204.00
2018-10-11T07:25:30.187Z,2372.00
2018-10-11T07:26:30.257Z,2000.00
2018-10-11T07:27:30.229Z,1952.00
2018-10-11T07:28:30.246Z,1964.00
2018-10-11T07:29:30.266Z,1972.00
2018-10-11T07:30:30.285Z,1992.00
2018-10-11T07:31:30.306Z,2008.00
2018-10-11T07:32:30.380Z,2028.00
2018-10-11T07:33:30.345Z,2072.00
2018-10-11T07:34:30.382Z,2284.00
2018-10-11T07:35:30.544Z,4308.00
2018-10-11T07:36:30.406Z,4644.00
2018-10-11T07:37:30.425Z,2692.00
2018-10-11T07:38:30.445Z,3132.00
2018-10-11T07:39:30.465Z,5480.00
2018-10-11T07:40:30.572Z,4712.00
2018-10-11T07:41:30.556Z,2936.00
2018-10-11T07:42:30.526Z,2272.00
2018-10-11T07:43:30.546Z,2240.00
2018-10-11T07:44:30.566Z,2256.00
2018-10-11T07:45:30.588Z,2280.00
2018-10-11T07:46:30.606Z,2292.00
2018-10-11T07:47:30.628Z,2312.00
2018-10-11T07:48:30.649Z,2332.00
2018-10-11T07:49:30.667Z,2348.00
2018-10-11T07:50:30.688Z,2368.00
2018-10-11T07:51:30.708Z,2388.00
2018-10-11T07:52:31.034Z,2404.00
2018-10-11T07:53:30.752Z,2424.00
2018-10-11T07:54:30.769Z,2440.00
2018-10-11T07:55:30.790Z,2448.00
2018-10-11T07:56:30.810Z,2464.00
2018-10-11T07:57:30.830Z,2480.00
2018-10-11T07:58:30.851Z,2504.00
2018-10-11T07:59:30.873Z,2516.00
2018-10-11T08:00:30.892Z,2524.00
2018-10-11T08:01:31.014Z,2540.00
2018-10-11T08:02:30.937Z,2552.00
2018-10-11T08:03:32.166Z,2568.00
2018-10-11T08:04:30.974Z,2580.00
2018-10-11T08:05:30.994Z,2588.00
2018-10-11T08:06:31.014Z,2604.00
2018-10-11T08:07:31.141Z,2616.00
2018-10-11T08:08:31.130Z,2632.00
2018-10-11T08:09:31.100Z,2664.00
2018-10-11T08:10:31.232Z,2712.00
2018-10-11T08:11:31.209Z,2712.00
2018-10-11T08:12:31.141Z,2736.00
2018-10-11T08:13:31.252Z,2744.00
2018-10-11T08:14:31.179Z,2756.00
2018-10-11T08:15:31.201Z,2768.00
2018-10-11T08:16:31.298Z,2784.00
2018-10-11T08:17:31.699Z,2792.00
2018-10-11T08:18:31.263Z,2800.00
2018-10-11T08:19:31.523Z,2816.00
2018-10-11T08:20:31.370Z,2816.00
2018-10-11T08:21:31.369Z,2840.00
2018-10-11T08:22:31.355Z,2848.00
2018-10-11T08:23:31.367Z,2856.00
2018-10-11T08:24:31.654Z,2880.00
2018-10-11T08:25:31.813Z,2912.00
2018-10-11T08:26:31.641Z,2936.00
2018-10-11T08:27:31.453Z,2928.00
2018-10-11T08:28:31.471Z,2932.00
2018-10-11T08:29:31.491Z,2928.00
2018-10-11T08:30:31.513Z,2952.00
2018-10-11T08:31:31.561Z,2956.00
2018-10-11T08:32:31.636Z,2976.00
2018-10-11T08:33:31.575Z,2988.00
2018-10-11T08:34:31.599Z,3008.00
2018-10-11T08:35:31.619Z,3016.00
2018-10-11T08:36:31.643Z,3072.00
2018-10-11T08:37:31.747Z,3088.00
2018-10-11T08:38:31.744Z,3056.00
2018-10-11T08:39:31.704Z,3084.00
2018-10-11T08:40:31.725Z,3100.00
2018-10-11T08:41:31.747Z,3096.00
2018-10-11T08:42:31.766Z,3136.00
2018-10-11T08:43:31.869Z,3144.00
2018-10-11T08:44:31.812Z,3176.00
2018-10-11T08:45:31.830Z,3176.00
2018-10-11T08:46:31.852Z,3172.00
2018-10-11T08:47:31.873Z,3204.00
2018-10-11T08:48:31.895Z,3212.00
2018-10-11T08:49:31.915Z,3220.00
2018-10-11T08:50:32.007Z,3244.00
2018-10-11T08:51:31.959Z,3256.00
2018-10-11T08:52:31.981Z,3280.00
2018-10-11T08:53:32.020Z,3300.00
2018-10-11T08:54:32.023Z,3316.00
2018-10-11T08:55:32.091Z,3332.00
2018-10-11T08:56:32.067Z,3348.00
2018-10-11T08:57:32.338Z,3364.00
2018-10-11T08:58:32.110Z,3376.00
2018-10-11T08:59:32.242Z,3412.00
2018-10-11T09:00:32.153Z,3472.00
2018-10-11T09:01:32.176Z,3480.00
2018-10-11T09:02:32.204Z,3488.00
2018-10-11T09:03:32.354Z,3480.00
2018-10-11T09:04:32.461Z,3532.00
2018-10-11T09:05:32.262Z,3556.00
2018-10-11T09:06:32.284Z,3572.00
2018-10-11T09:07:32.309Z,3592.00
2018-10-11T09:08:32.329Z,3608.00
2018-10-11T09:09:32.411Z,3628.00
2018-10-11T09:10:38.291Z,3660.00
2018-10-11T09:11:32.547Z,3688.00
2018-10-11T09:12:32.416Z,3760.00
2018-10-11T09:13:32.438Z,3720.00
2018-10-11T09:14:32.462Z,3736.00
2018-10-11T09:15:32.485Z,3724.00
2018-10-11T09:16:32.506Z,3772.00
2018-10-11T09:17:32.676Z,3824.00
2018-10-11T09:18:32.600Z,3812.00
2018-10-11T09:19:32.572Z,4212.00
2018-10-11T09:20:32.594Z,3808.00
2018-10-11T09:21:32.616Z,3792.00
2018-10-11T09:22:32.643Z,3800.00
2018-10-11T09:23:32.662Z,3804.00
2018-10-11T09:24:32.684Z,3840.00
2018-10-11T09:25:32.706Z,3804.00
2018-10-11T09:26:32.728Z,3796.00
2018-10-11T09:27:32.752Z,3840.00
2018-10-11T09:28:32.775Z,3836.00
2018-10-11T09:29:32.801Z,3844.00
2018-10-11T09:30:32.870Z,3864.00
2018-10-11T09:31:32.842Z,3852.00
2018-10-11T09:32:32.865Z,3872.00
2018-10-11T09:33:33.132Z,3892.00
2018-10-11T09:34:32.912Z,3892.00
2018-10-11T09:35:32.934Z,3848.00
2018-10-11T09:36:33.010Z,3872.00
2018-10-11T09:37:32.978Z,3900.00
2018-10-11T09:38:33.002Z,3936.00
2018-10-11T09:39:33.075Z,3936.00
2018-10-11T09:40:33.048Z,3912.00
2018-10-11T09:41:33.069Z,3908.00
2018-10-11T09:42:33.093Z,3952.00
2018-10-11T09:43:33.117Z,3944.00
2018-10-11T09:44:33.139Z,3960.00
2018-10-11T09:45:33.162Z,3972.00
2018-10-11T09:46:33.185Z,3988.00
2018-10-11T09:47:33.209Z,3952.00
2018-10-11T09:48:33.245Z,3948.00
2018-10-11T09:49:33.254Z,3908.00
2018-10-11T09:50:33.277Z,3964.00
2018-10-11T09:51:33.301Z,4024.00
2018-10-11T09:52:33.324Z,3988.00
2018-10-11T09:53:33.350Z,4008.00
2018-10-11T09:54:33.533Z,3972.00
2018-10-11T09:55:33.397Z,3984.00
2018-10-11T09:56:33.418Z,4004.00
2018-10-11T09:57:33.441Z,4000.00
2018-10-11T09:58:33.464Z,3968.00
2018-10-11T09:59:33.487Z,3960.00
2018-10-11T10:00:33.511Z,4004.00
2018-10-11T10:01:33.533Z,3984.00
2018-10-11T10:02:33.557Z,3924.00
2018-10-11T10:03:33.581Z,3976.00
2018-10-11T10:04:33.604Z,4008.00
2018-10-11T10:05:33.627Z,3988.00
2018-10-11T10:06:33.651Z,3968.00
2018-10-11T10:07:33.675Z,3976.00
2018-10-11T10:08:33.701Z,3988.00
2018-10-11T10:09:33.720Z,3996.00
2018-10-11T10:10:33.744Z,3964.00
2018-10-11T10:11:33.768Z,3864.00
2018-10-11T10:12:33.793Z,3896.00
2018-10-11T10:13:33.815Z,3956.00
2018-10-11T10:14:33.840Z,3964.00
2018-10-11T10:15:33.899Z,3996.00
2018-10-11T10:16:33.887Z,3920.00
2018-10-11T10:17:33.910Z,3972.00
2018-10-11T10:18:33.934Z,3968.00
2018-10-11T10:19:33.961Z,3924.00
2018-10-11T10:20:33.982Z,3932.00
2018-10-11T10:21:34.072Z,3968.00
2018-10-11T10:22:34.051Z,3924.00
2018-10-11T10:23:34.053Z,3956.00
2018-10-11T10:24:34.077Z,3932.00
2018-10-11T10:25:34.152Z,3936.00
2018-10-11T10:26:34.175Z,3928.00
2018-10-11T10:27:34.230Z,3944.00
2018-10-11T10:28:34.475Z,4012.00
2018-10-11T10:29:34.196Z,3912.00
2018-10-11T10:30:34.221Z,3912.00
2018-10-11T10:31:34.248Z,3912.00
2018-10-11T10:32:34.268Z,3856.00
2018-10-11T10:33:34.292Z,3900.00
2018-10-11T10:34:34.316Z,3916.00
2018-10-11T10:35:34.591Z,3940.00
2018-10-11T10:36:34.365Z,3908.00
2018-10-11T10:37:34.538Z,3888.00
2018-10-11T10:38:34.418Z,3896.00
2018-10-11T10:39:34.436Z,3928.00
2018-10-11T10:40:34.461Z,3924.00
2018-10-11T10:41:34.487Z,3888.00
2018-10-11T10:42:34.909Z,3896.00
2018-10-11T10:43:34.533Z,3984.00
2018-10-11T10:44:34.557Z,3900.00
2018-10-11T10:45:34.591Z,3920.00
2018-10-11T10:46:34.606Z,3892.00
2018-10-11T10:47:35.036Z,3856.00
2018-10-11T10:48:34.656Z,3884.00
2018-10-11T10:49:35.079Z,3904.00
2018-10-11T10:50:34.703Z,3936.00
2018-10-11T10:51:34.727Z,3868.00
2018-10-11T10:52:34.751Z,3820.00
2018-10-11T10:53:34.775Z,3824.00
2018-10-11T10:54:34.800Z,3856.00
2018-10-11T10:55:34.825Z,3780.00
2018-10-11T10:56:34.851Z,3772.00
2018-10-11T10:57:34.873Z,3792.00
2018-10-11T10:58:34.898Z,3816.00
2018-10-11T10:59:35.277Z,3828.00
2018-10-11T11:00:34.947Z,3812.00
2018-10-11T11:01:35.020Z,3796.00
2018-10-11T11:02:34.995Z,3796.00
2018-10-11T11:03:35.020Z,3776.00
2018-10-11T11:04:35.146Z,3812.00
2018-10-11T11:05:35.069Z,3796.00
2018-10-11T11:06:35.093Z,3792.00
2018-10-11T11:07:35.117Z,3800.00
2018-10-11T11:08:35.144Z,3764.00
2018-10-11T11:09:35.166Z,3728.00
2018-10-11T11:10:35.191Z,3804.00
2018-10-11T11:11:35.216Z,3540.00
2018-10-11T11:12:35.248Z,3460.00
2018-10-11T11:13:35.268Z,3620.00
2018-10-11T11:14:35.326Z,3776.00
2018-10-11T11:15:35.314Z,3772.00
2018-10-11T11:16:35.338Z,3804.00
2018-10-11T11:17:35.364Z,3588.00
2018-10-11T11:18:35.387Z,3368.00
2018-10-11T11:19:35.412Z,3140.00
2018-10-11T11:20:35.437Z,3736.00
2018-10-11T11:21:35.461Z,3772.00
2018-10-11T11:22:35.489Z,3784.00
2018-10-11T11:23:35.513Z,3560.00
2018-10-11T11:24:35.535Z,3480.00
2018-10-11T11:25:35.609Z,3728.00
2018-10-11T11:26:35.583Z,3812.00
2018-10-11T11:27:35.608Z,3808.00
2018-10-11T11:28:35.633Z,3776.00
2018-10-11T11:29:35.659Z,3812.00
2018-10-11T11:30:35.682Z,3776.00
2018-10-11T11:31:35.707Z,3780.00
2018-10-11T11:32:35.735Z,3808.00
2018-10-11T11:33:35.755Z,3632.00
2018-10-11T11:34:35.781Z,3584.00
2018-10-11T11:35:35.806Z,3620.00
2018-10-11T11:36:35.830Z,3292.00
2018-10-11T11:37:35.858Z,3576.00
2018-10-11T11:38:35.879Z,3656.00
2018-10-11T11:39:35.904Z,3632.00
2018-10-11T11:40:35.930Z,3408.00
2018-10-11T11:41:35.952Z,3384.00
2018-10-11T11:42:35.981Z,3280.00
2018-10-11T11:43:36.003Z,3244.00
2018-10-11T11:44:36.028Z,3104.00
2018-10-11T11:45:36.056Z,2712.00
2018-10-11T11:46:36.077Z,2748.00
2018-10-11T11:47:36.102Z,2832.00
2018-10-11T11:48:36.127Z,2964.00
2018-10-11T11:49:36.151Z,3356.00
2018-10-11T11:50:36.240Z,3504.00
2018-10-11T11:51:36.201Z,3644.00
2018-10-11T11:52:36.227Z,3656.00
2018-10-11T11:53:36.251Z,3340.00
2018-10-11T11:54:36.275Z,3544.00
2018-10-11T11:55:36.300Z,3828.00
2018-10-11T11:56:36.326Z,3872.00
2018-10-11T11:57:36.350Z,3896.00
2018-10-11T11:58:36.375Z,3892.00
2018-10-11T11:59:36.401Z,3892.00
2018-10-11T12:00:36.425Z,3956.00
2018-10-11T12:01:36.449Z,3808.00
2018-10-11T12:02:36.484Z,3712.00
2018-10-11T12:03:36.501Z,3452.00
2018-10-11T12:04:36.524Z,3196.00
2018-10-11T12:05:36.549Z,3264.00
2018-10-11T12:06:36.574Z,3376.00
2018-10-11T12:07:36.599Z,3480.00
2018-10-11T12:08:36.624Z,3664.00
2018-10-11T12:09:36.648Z,3836.00
2018-10-11T12:10:36.730Z,3876.00
2018-10-11T12:11:36.699Z,3884.00
2018-10-11T12:12:36.724Z,3804.00
2018-10-11T12:13:36.753Z,3796.00
2018-10-11T12:14:36.773Z,3768.00
2018-10-11T12:15:36.803Z,3076.00
2018-10-11T12:16:36.842Z,3352.00
2018-10-11T12:17:36.849Z,3208.00
2018-10-11T12:18:36.875Z,3156.00
2018-10-11T12:19:36.901Z,3268.00
2018-10-11T12:20:36.924Z,3480.00
2018-10-11T12:21:36.949Z,3644.00
2018-10-11T12:22:36.975Z,3668.00
2018-10-11T12:23:37.000Z,3716.00
2018-10-11T12:24:37.029Z,3716.00
2018-10-11T12:25:37.052Z,3716.00
2018-10-11T12:26:37.077Z,3716.00
2018-10-11T12:27:37.101Z,3712.00
2018-10-11T12:28:37.312Z,3680.00
2018-10-11T12:29:37.150Z,3664.00
2018-10-11T12:30:37.176Z,3668.00
2018-10-11T12:31:37.206Z,3600.00
2018-10-11T12:32:37.227Z,3556.00
2018-10-11T12:33:37.251Z,3572.00
2018-10-11T12:34:37.276Z,3640.00
2018-10-11T12:35:37.302Z,3616.00
2018-10-11T12:36:37.396Z,3668.00
2018-10-11T12:37:37.372Z,3688.00
2018-10-11T12:38:37.686Z,3668.00